Latest Weather Observations for PORTABLE RFSNSW02

IDN60801

Issued at 11:32 am EDT Thursday 21 November 2019 (issued every 10 minutes, with the page automatically refreshed every 10 minutes)

About weather observations | Map of weather stations | Latest weather observations for NSW | Other Formats
Station Details ID: 250042 Name: PORTABLE RFSNSW02 Lat: -33.59 Lon: 151.01 Height: 169.0 m

Portable automatic weather stations (PAWS) are operated by other organisations, such as Fire and Emergency Services, and are included here by agreement. Portable stations may be deployed to a location for a short period and their location may be subject to change without notice. Wind observations from these stations are provided from heights of either three (3) or ten (10) metres above ground level (AGL).

Data from the previous 72 hours. | See also: Recent months for locations in New South Wales
Date/Time
EDT
Temp
°C
App
Temp
°C
Dew
Point
°C
Rel
Hum
%
Delta-T
°C
Wind Press
QNH
hPa
Press
MSL
hPa
Rain since
9am
mm
Dir  Spd
km/h
Gust
km/h
Spd
kts
Gust
kts
21/11:00am 27.2 27.0 15.8 49 7.0 NE 11 15 6 8 - - 0.0
21/10:50am 26.8 26.5 15.4 49 7.0 NNE 11 15 6 8 - - 0.0
21/10:40am 26.9 26.7 15.6 50 6.9 NNE 11 15 6 8 - - 0.0
21/10:30am - - 16.5 - - NNE 11 17 6 9 - - 0.0
21/10:20am - - 16.0 - - NNE 7 9 4 5 - - 0.0
21/10:10am - - 16.6 - - NNE 9 13 5 7 - - 0.0
21/10:00am - - 16.7 - - N 11 15 6 8 - - 0.0
21/09:50am - - 16.4 - - NNE 9 11 5 6 - - 0.0
21/09:40am - - 17.1 - - N 9 15 5 8 - - 0.0
21/09:30am - - 16.8 - - NNE 9 13 5 7 - - 0.0
21/09:20am - - 17.1 - - N 9 15 5 8 - - 0.0
21/09:10am - - 17.0 - - N 9 11 5 6 - - 0.0
21/09:00am - - 17.1 - - N 7 9 4 5 - - 0.0
21/08:50am - - 17.0 - - N 7 11 4 6 - - 0.0
21/08:40am - - 16.9 - - N 9 15 5 8 - - 0.0
21/08:30am - - 17.0 - - N 9 11 5 6 - - 0.0
21/08:20am - - 16.7 - - NNW 7 13 4 7 - - 0.0
21/08:10am - - 16.8 - - NNW 11 15 6 8 - - 0.0
21/08:00am - - 16.7 - - NNW 7 11 4 6 - - 0.0
21/07:50am - - 16.6 - - NNW 11 13 6 7 - - 0.0
21/07:40am - - 16.5 - - NNW 11 15 6 8 - - 0.0
21/07:30am - - 16.4 - - NNW 11 13 6 7 - - 0.0
21/07:20am - - 16.2 - - NNW 9 13 5 7 - - 0.0
21/07:00am - - 15.4 - - NNW 7 11 4 6 - - 0.0
21/06:50am - - 15.3 - - NNW 7 9 4 5 - - 0.0
21/06:40am - - 14.9 - - NNW 6 7 3 4 - - 0.0
21/06:30am - - 15.2 - - NNW 6 7 3 4 - - 0.0
21/06:20am - - 14.9 - - NNW 6 7 3 4 - - 0.0
21/06:10am - - 14.6 - - N 6 7 3 4 - - 0.0
21/06:00am - - 14.7 - - N 4 6 2 3 - - 0.0
21/05:50am - - 14.8 - - NNE 4 6 2 3 - - 0.0
21/05:40am - - 14.6 - - ENE 4 4 2 2 - - 0.0
21/05:30am - - 14.8 - - ENE 4 4 2 2 - - 0.0
21/05:20am - - 14.8 - - NE 4 6 2 3 - - 0.0
21/05:10am - - 14.9 - - NNE 4 6 2 3 - - 0.0
21/05:00am - - 14.8 - - NNE 6 6 3 3 - - 0.0
21/04:30am 13.9 14.0 13.9 100 0.0 N 6 7 3 4 - - 0.0
21/04:20am 13.8 13.9 13.8 100 0.0 NNE 6 6 3 3 - - 0.0
21/04:10am 13.8 14.2 13.7 99 0.1 N 4 6 2 3 - - 0.0
21/04:00am 13.9 14.3 13.8 99 0.1 N 4 6 2 3 - - 0.0
21/03:50am 13.9 14.7 13.8 99 0.1 N 2 4 1 2 - - 0.0
21/03:40am 14.0 14.9 13.9 99 0.1 N 2 4 1 2 - - 0.0
21/03:30am 14.2 15.1 14.1 99 0.1 N 2 4 1 2 - - 0.0
21/03:20am 14.2 15.1 14.1 99 0.1 N 2 4 1 2 - - 0.0
21/03:10am 14.3 15.3 14.2 99 0.1 NNW 2 2 1 1 - - 0.0
21/03:00am 14.3 15.3 14.2 99 0.1 NW 2 2 1 1 - - 0.0
21/02:50am 14.2 15.5 14.1 99 0.1 CALM 0 2 0 1 - - 0.0
21/02:40am 14.4 15.4 14.3 99 0.1 NW 2 2 1 1 - - 0.0
21/02:30am 14.7 15.8 14.6 99 0.1 NW 2 4 1 2 - - 0.0
21/02:20am 14.8 15.9 14.7 99 0.1 NW 2 4 1 2 - - 0.0
21/02:10am 14.6 15.7 14.5 99 0.1 W 2 4 1 2 - - 0.0
21/02:00am 14.6 15.6 14.4 99 0.1 NW 2 2 1 1 - - 0.0
21/01:50am 14.8 15.9 14.5 98 0.2 WNW 2 2 1 1 - - 0.0
21/01:40am 14.8 15.9 14.6 99 0.1 N 2 2 1 1 - - 0.0
21/01:30am 15.0 16.1 14.6 97 0.2 N 2 4 1 2 - - 0.0
21/01:20am 15.1 15.9 14.8 98 0.2 N 4 4 2 2 - - 0.0
21/01:10am 15.2 16.4 14.8 97 0.2 NNW 2 4 1 2 - - 0.0
21/01:00am 15.2 16.4 14.8 97 0.2 WNW 2 2 1 1 - - 0.0
21/12:50am 15.3 16.5 14.8 97 0.3 WNW 2 2 1 1 - - 0.0
21/12:40am 15.4 16.5 14.7 96 0.4 WNW 2 4 1 2 - - 0.0
21/12:30am 15.4 16.6 14.8 96 0.3 NNW 2 2 1 1 - - 0.0
21/12:20am 15.5 16.7 14.9 96 0.3 NW 2 2 1 1 - - 0.0
21/12:10am 15.4 16.6 14.9 97 0.3 WNW 2 4 1 2 - - 0.0
21/12:00am 15.3 16.5 14.8 97 0.3 WNW 2 4 1 2 - - 0.0
 
Date/Time
EDT
Temp
°C
App
Temp
°C
Dew
Point
°C
Rel
Hum
%
Delta-T
°C
Wind Press
QNH
hPa
Press
MSL
hPa
Rain since
9am
mm
Dir  Spd
km/h
Gust
km/h
Spd
kts
Gust
kts
20/11:50pm 15.0 15.8 14.8 99 0.1 W 4 4 2 2 - - 0.0
20/11:40pm 15.0 16.1 14.7 98 0.2 W 2 4 1 2 - - 0.0
20/11:30pm 15.1 15.9 14.8 98 0.2 W 4 4 2 2 - - 0.0
20/11:20pm 15.1 16.3 14.8 98 0.2 W 2 4 1 2 - - 0.0
20/11:10pm 15.3 16.5 14.9 97 0.2 WNW 2 2 1 1 - - 0.0
20/11:00pm 15.3 16.5 14.9 97 0.2 WNW 2 4 1 2 - - 0.0
20/10:50pm 15.4 16.6 14.9 97 0.3 NW 2 2 1 1 - - 0.0
20/10:40pm 15.4 16.6 14.9 97 0.3 NNW 2 2 1 1 - - 0.0
20/10:30pm 15.6 16.8 15.0 96 0.3 NE 2 2 1 1 - - 0.0
20/10:20pm 15.5 16.7 14.9 96 0.3 E 2 2 1 1 - - 0.0
20/10:10pm 15.6 16.8 15.0 96 0.3 NE 2 2 1 1 - - 0.0
20/10:00pm 15.6 16.8 14.9 96 0.4 NNE 2 2 1 1 - - 0.0
20/09:50pm 15.7 16.9 14.9 95 0.5 ENE 2 2 1 1 - - 0.0
20/09:40pm 15.9 17.1 14.9 94 0.6 ENE 2 2 1 1 - - 0.0
20/09:30pm 16.2 17.4 15.0 93 0.7 E 2 4 1 2 - - 0.0
20/09:20pm 16.4 17.6 15.0 91 0.8 NE 2 4 1 2 - - 0.0
20/09:10pm 16.6 17.8 14.9 90 1.0 ESE 2 2 1 1 - - 0.0
20/09:00pm 16.8 17.6 14.9 88 1.1 - 4 6 2 3 - - 0.0
20/08:50pm 16.9 17.3 14.8 87 1.2 E 6 7 3 4 - - 0.0
20/08:40pm 16.9 17.7 14.7 87 1.3 E 4 6 2 3 - - 0.0
20/08:30pm 17.2 17.9 14.5 84 1.6 E 4 6 2 3 - - 0.0
20/08:20pm 17.5 17.8 14.5 82 1.7 E 6 7 3 4 - - 0.0
20/08:10pm 17.6 17.9 14.4 81 1.9 E 6 7 3 4 - - 0.0
20/08:00pm 17.7 17.9 14.3 80 2.0 E 6 9 3 5 - - 0.0
20/07:50pm 18.0 18.2 14.3 79 2.1 E 6 7 3 4 - - 0.0
20/07:40pm 18.3 17.9 14.2 77 2.4 E 9 13 5 7 - - 0.0
20/07:30pm 18.7 18.2 13.9 73 2.8 E 9 13 5 7 - - 0.0
20/07:20pm 19.0 18.2 13.9 72 2.9 E 11 17 6 9 - - 0.0
20/07:10pm 19.3 17.7 14.0 71 3.1 E 15 19 8 10 - - 0.0
20/07:00pm 19.8 19.0 14.0 69 3.4 E 11 15 6 8 - - 0.0
20/06:50pm 20.3 19.5 14.0 67 3.7 ENE 11 15 6 8 - - 0.0
20/06:40pm 20.7 19.8 13.8 64 4.0 E 11 17 6 9 - - 0.0
20/06:30pm 20.9 19.5 13.5 62 4.3 E 13 17 7 9 - - 0.0
20/06:20pm 21.2 19.4 13.2 60 4.6 E 15 19 8 10 - - 0.0
20/06:10pm 21.6 20.6 13.4 59 4.8 E 11 17 6 9 - - 0.0
20/06:00pm 21.9 20.9 13.3 58 5.0 E 11 15 6 8 - - 0.0
20/05:50pm 22.1 20.6 13.1 56 5.2 ESE 13 17 7 9 - - 0.0
20/05:40pm 22.5 21.4 13.2 55 5.4 ESE 11 17 6 9 - - 0.0
20/05:30pm 22.5 21.0 13.1 55 5.4 E 13 19 7 10 - - 0.0
20/05:20pm 22.9 21.5 13.4 55 5.5 ESE 13 17 7 9 - - 0.0
20/05:10pm 23.4 22.3 13.0 52 6.0 ESE 11 17 6 9 - - 0.0
20/05:00pm 23.3 21.8 13.1 52 5.9 E 13 17 7 9 - - 0.0
20/04:50pm 23.6 21.7 13.1 51 6.1 E 15 19 8 10 - - 0.0
20/04:40pm 24.4 23.5 13.6 51 6.4 E 11 15 6 8 - - 0.0
20/04:30pm 24.4 23.3 13.1 49 6.6 ESE 11 17 6 9 - - 0.0
20/04:20pm 24.7 23.7 13.4 49 6.6 E 11 17 6 9 - - 0.0
20/04:00pm 25.1 23.8 13.8 49 6.7 ESE 13 15 7 8 - - 0.0
20/03:50pm 25.3 24.7 13.6 48 6.9 E 9 11 5 6 - - 0.0
20/03:40pm 25.2 24.6 13.6 48 6.9 E 9 17 5 9 - - 0.0
20/03:30pm 24.9 23.9 13.4 48 6.8 ESE 11 15 6 8 - - 0.0
20/03:20pm 24.5 23.1 13.3 49 6.6 ESE 13 17 7 9 - - 0.0
20/03:10pm 24.8 24.0 14.0 51 6.4 E 11 17 6 9 - - 0.0
20/03:00pm 25.0 24.1 13.8 49 6.6 ESE 11 15 6 8 - - 0.0
20/02:50pm 25.3 25.0 13.4 47 7.0 ESE 7 11 4 6 - - 0.0
20/02:40pm 24.9 24.1 13.9 50 6.5 ESE 11 15 6 8 - - 0.0
20/02:30pm 25.1 24.5 13.6 49 6.8 E 9 13 5 7 - - 0.0
20/02:20pm 24.9 24.9 14.3 51 6.3 ESE 7 11 4 6 - - 0.0
20/02:10pm 24.1 23.5 13.6 52 6.2 ESE 9 13 5 7 - - 0.0
20/02:00pm 24.2 23.6 13.5 51 6.3 SE 9 13 5 7 - - 0.0
20/01:50pm 24.4 23.1 13.6 51 6.4 SE 13 17 7 9 - - 0.0
20/01:40pm 24.8 24.4 14.0 51 6.4 SE 9 11 5 6 - - 0.0
20/01:30pm 24.2 24.3 13.8 52 6.1 S 6 9 3 5 - - 0.0
20/01:20pm 23.3 22.6 13.1 52 5.9 SE 9 13 5 7 - - 0.0
20/01:10pm 23.5 23.4 13.8 54 5.7 S 7 13 4 7 - - 0.0
20/01:00pm 22.8 22.0 14.0 57 5.2 SE 11 15 6 8 - - 0.0
20/12:50pm 23.0 22.6 14.1 57 5.3 E 9 13 5 7 - - 0.0
20/12:40pm 22.2 22.1 13.3 57 5.2 ENE 6 9 3 5 - - 0.0
20/12:30pm 22.0 21.5 13.8 59 4.8 - 9 13 5 7 - - 0.0
20/12:20pm 21.7 21.2 13.9 61 4.6 SE 9 11 5 6 - - 0.0
20/12:10pm 22.2 22.4 14.1 60 4.8 S 6 15 3 8 - - 0.0
20/12:00pm 22.2 22.4 13.0 56 5.3 NW 4 6 2 3 - - 0.0
20/11:50am 21.8 21.6 12.9 57 5.1 NE 6 7 3 4 - - 0.0
20/11:40am 20.7 20.4 12.8 60 4.5 SE 6 9 3 5 - - 0.0
20/11:30am 20.6 20.4 13.5 63 4.1 ESE 7 9 4 5 - - 0.0
20/11:20am 20.8 20.5 13.3 62 4.3 ESE 7 11 4 6 - - 0.0
20/11:10am 20.8 21.0 13.0 61 4.5 ESE 4 6 2 3 - - 0.0
20/11:00am 20.6 20.3 13.2 62 4.3 SSE 7 11 4 6 - - 0.0
20/10:50am 20.9 20.7 13.7 63 4.2 SE 7 9 4 5 - - 0.0
20/10:40am 20.9 21.3 13.8 64 4.1 N 4 6 2 3 - - 0.0
20/10:30am 20.5 20.2 13.4 63 4.1 SE 7 11 4 6 - - 0.0
20/10:20am 20.4 20.3 13.4 64 4.0 SSE 6 9 3 5 - - 0.0
20/10:10am 20.0 19.7 13.4 65 3.8 SE 7 11 4 6 - - 0.0
20/10:00am 19.8 19.2 13.5 67 3.6 SSE 9 11 5 6 - - 0.0
20/09:50am 20.1 20.0 13.8 67 3.7 S 7 11 4 6 - - 0.0
20/09:40am 19.8 19.6 13.7 68 3.5 S 7 9 4 5 - - 0.0
20/09:30am 19.9 19.9 13.5 66 3.7 S 6 9 3 5 - - 0.0
20/09:20am 19.5 19.2 13.4 68 3.5 S 7 11 4 6 - - 0.0
20/09:10am 19.4 19.2 13.7 69 3.3 S 7 9 4 5 - - 0.0
20/09:00am 19.3 19.1 13.5 69 3.3 S 7 11 4 6 - - 0.0
20/08:50am 18.8 18.6 13.6 72 3.0 S 7 7 4 4 - - 0.0
20/08:40am 18.5 18.3 13.7 73 2.8 S 7 9 4 5 - - 0.0
20/08:30am 18.2 18.1 13.3 73 2.8 S 6 7 3 4 - - 0.0
20/08:20am 17.9 17.8 13.4 75 2.6 S 6 7 3 4 - - 0.0
20/08:10am 17.7 17.7 13.6 77 2.3 SSW 6 7 3 4 - - 0.0
20/08:00am 17.6 18.0 13.6 77 2.3 S 4 7 2 4 - - 0.0
20/07:50am 17.4 17.4 13.6 78 2.2 S 6 7 3 4 - - 0.0
20/07:40am 17.3 17.3 13.6 79 2.1 S 6 7 3 4 - - 0.0
20/07:30am 17.2 17.2 13.6 79 2.1 S 6 9 3 5 - - 0.0
20/07:20am 17.2 17.6 13.7 80 2.0 S 4 9 2 5 - - 0.0
20/07:10am 17.1 17.1 13.6 80 2.0 S 6 7 3 4 - - 0.0
20/07:00am 17.0 17.4 13.7 81 1.9 S 4 6 2 3 - - 0.0
20/06:50am 16.9 17.4 13.9 82 1.7 S 4 6 2 3 - - 0.0
20/06:40am 16.9 17.0 13.8 82 1.8 SSE 6 7 3 4 - - 0.0
20/06:30am 16.8 17.3 13.9 83 1.7 SSE 4 6 2 3 - - 0.0
20/06:20am 16.8 16.9 14.0 83 1.6 SSE 6 9 3 5 - - 0.0
20/06:10am 16.8 17.3 14.0 83 1.6 S 4 6 2 3 - - 0.0
20/06:00am 16.8 17.3 14.0 83 1.6 SSE 4 9 2 5 - - 0.0
20/05:50am 16.8 17.3 14.0 83 1.6 S 4 7 2 4 - - 0.0
20/05:40am 16.8 17.4 14.2 85 1.5 SSE 4 6 2 3 - - 0.0
20/05:30am 16.8 17.4 14.3 85 1.4 S 4 6 2 3 - - 0.0
20/05:20am 16.8 17.0 14.2 85 1.5 SSE 6 9 3 5 - - 0.0
20/05:10am 16.8 17.4 14.3 85 1.4 SSE 4 7 2 4 - - 0.0
20/05:00am 16.8 17.0 14.3 85 1.4 S 6 7 3 4 - - 0.0
20/04:50am 16.8 17.1 14.4 86 1.4 S 6 9 3 5 - - 0.0
20/04:40am 16.8 17.1 14.4 86 1.4 S 6 7 3 4 - - 0.0
20/04:30am 16.9 17.6 14.5 86 1.4 S 4 6 2 3 - - 0.0
20/04:20am 16.9 17.2 14.5 86 1.4 S 6 7 3 4 - - 0.0
20/04:10am 17.0 17.3 14.6 86 1.4 S 6 7 3 4 - - 0.0
20/04:00am 17.1 17.4 14.5 85 1.5 SSE 6 9 3 5 - - 0.0
20/03:50am 17.1 17.5 14.7 86 1.4 S 6 7 3 4 - - 0.0
20/03:40am 17.2 17.4 14.7 85 1.5 S 7 9 4 5 - - 0.0
20/03:30am 17.3 17.7 14.7 85 1.5 S 6 9 3 5 - - 0.0
20/03:20am 17.4 17.8 14.8 85 1.5 S 6 7 3 4 - - 0.0
20/03:10am 17.5 17.7 14.8 84 1.6 SSE 7 9 4 5 - - 0.0
20/03:00am 17.6 17.8 14.8 84 1.6 SSE 7 11 4 6 - - 0.0
20/02:50am 17.7 18.1 14.8 83 1.7 S 6 9 3 5 - - 0.0
20/02:40am 17.8 18.1 14.6 81 1.9 S 6 9 3 5 - - 0.0
 
Date/Time
EDT
Temp
°C
App
Temp
°C
Dew
Point
°C
Rel
Hum
%
Delta-T
°C
Wind Press
QNH
hPa
Press
MSL
hPa
Rain since
9am
mm
Dir  Spd
km/h
Gust
km/h
Spd
kts
Gust
kts
19/02:10pm 35.7 32.6 0.4 11 17.7 NNW 6 11 3 6 - - 0.0
19/02:00pm 36.1 32.5 0.3 10 18.0 SW 9 17 5 9 - - 0.0
19/01:50pm 35.6 32.2 2.0 12 17.3 SSW 9 15 5 8 - - 0.0
19/01:40pm 35.6 32.5 1.2 11 17.5 SW 7 19 4 10 - - 0.0
19/01:30pm 35.2 31.8 1.9 12 17.1 SW 9 15 5 8 - - 0.0
19/01:20pm 35.1 31.8 2.3 12 16.9 SW 9 13 5 7 - - 0.0
19/01:10pm 34.8 31.9 2.7 13 16.7 SW 7 11 4 6 - - 0.0
19/01:00pm 34.7 31.4 2.3 13 16.7 SW 9 17 5 9 - - 0.0
19/12:50pm 34.6 31.7 2.5 13 16.6 W 7 13 4 7 - - 0.0
19/12:40pm 34.1 30.2 1.3 12 16.6 SW 11 15 6 8 - - 0.0
19/12:30pm 34.3 31.5 3.1 14 16.2 S 7 9 4 5 - - 0.0
19/12:20pm 33.8 30.7 1.4 13 16.4 S 7 11 4 6 - - 0.0
19/12:10pm 33.8 29.6 1.6 13 16.3 SSW 13 20 7 11 - - 0.0
19/12:00pm 34.0 30.5 1.5 13 16.5 SSW 9 17 5 9 - - 0.0
19/11:50am 33.9 31.5 2.2 13 16.2 W 4 7 2 4 - - 0.0
19/11:40am 33.5 30.6 2.7 14 15.9 SW 7 13 4 7 - - 0.0
19/11:30am 32.9 30.6 4.9 17 14.9 NW 6 9 3 5 - - 0.0
19/11:20am 32.6 30.0 3.0 15 15.2 WNW 6 7 3 4 - - 0.0
19/11:10am 32.1 29.3 3.2 16 14.9 W 7 15 4 8 - - 0.0
19/11:00am 31.7 29.0 3.5 16 14.6 SW 7 11 4 6 - - 0.0
19/10:50am 31.4 28.6 3.0 16 14.5 W 7 11 4 6 - - 0.0
19/10:40am 30.8 28.4 4.4 19 13.8 WNW 6 9 3 5 - - 0.0
19/10:30am 30.3 27.8 4.6 19 13.4 NW 7 9 4 5 - - 0.0
19/10:20am 30.0 27.4 4.2 19 13.3 NNW 7 9 4 5 - - 0.0
19/10:10am 29.9 27.5 4.4 20 13.2 NW 6 7 3 4 - - 0.0
19/10:00am 29.5 26.8 3.5 19 13.2 WNW 7 9 4 5 - - 0.0
19/09:50am 29.3 26.7 3.3 19 13.2 NNW 6 9 3 5 - - 0.0
19/09:40am 29.0 26.5 3.7 20 12.9 WNW 6 7 3 4 - - 0.0
19/09:30am 28.5 25.8 2.6 19 12.9 WNW 6 9 3 5 - - 0.0
19/09:20am 28.2 25.9 4.8 22 12.1 NW 6 9 3 5 - - 0.0
19/09:10am 27.9 25.5 4.4 22 12.0 NW 6 7 3 4 - - 0.0
19/09:00am 27.4 25.2 5.3 24 11.5 WNW 6 6 3 3 - - 0.0
19/08:50am 26.9 24.5 4.1 23 11.5 NW 6 7 3 4 - - 0.0
19/08:40am 26.4 24.0 5.1 25 10.9 NW 7 9 4 5 - - 0.0
19/08:30am 26.0 23.8 5.3 26 10.6 NNW 6 7 3 4 - - 0.0
19/08:20am 25.6 23.4 5.3 27 10.4 NNW 6 7 3 4 - - 0.0
19/08:10am 25.2 22.9 4.9 27 10.3 NNW 6 6 3 3 - - 0.0
19/08:00am 24.6 22.7 5.1 28 9.9 NW 4 6 2 3 - - 0.0
19/07:50am 23.7 21.7 4.2 28 9.7 NW 4 7 2 4 - - 0.0
19/07:40am 22.4 20.3 5.7 33 8.5 NNW 6 7 3 4 - - 0.0
19/07:30am 21.1 20.0 8.3 43 6.8 N 4 6 2 3 - - 0.0
19/07:20am 19.5 18.5 8.7 49 5.7 N 4 6 2 3 - - 0.0
19/07:10am 18.4 17.0 7.1 47 5.7 N 4 6 2 3 - - 0.0
19/07:00am 18.1 17.2 9.4 57 4.6 N 4 6 2 3 - - 0.0
19/06:50am 18.5 16.8 7.4 48 5.7 N 6 6 3 3 - - 0.0
19/06:40am 18.0 16.1 5.0 42 6.3 N 4 4 2 2 - - 0.0
19/06:30am 17.5 15.6 4.9 43 6.1 NNE 4 6 2 3 - - 0.0
19/06:20am 16.2 14.2 4.2 45 5.6 NNE 4 6 2 3 - - 0.0
19/06:10am 16.1 14.3 5.3 48 5.2 NNE 4 6 2 3 - - 0.0
19/06:00am 16.3 14.4 5.0 47 5.4 NNE 4 4 2 2 - - 0.0
19/05:50am 16.9 14.8 4.0 42 6.1 N 4 6 2 3 - - 0.0
19/05:40am 17.3 15.5 5.6 46 5.7 N 4 6 2 3 - - 0.0
19/05:30am 17.6 15.4 3.6 39 6.6 N 4 4 2 2 - - 0.0
19/05:20am 17.7 15.5 3.5 38 6.7 N 4 6 2 3 - - 0.0
19/05:10am 17.9 15.7 3.5 38 6.8 N 4 7 2 4 - - 0.0
19/05:00am 18.5 15.9 3.0 35 7.2 N 6 7 3 4 - - 0.0
19/04:50am 18.6 15.9 2.9 35 7.3 NNW 6 7 3 4 - - 0.0
19/04:40am 18.8 16.2 3.0 35 7.4 NNW 6 7 3 4 - - 0.0
19/04:30am 18.7 16.1 3.0 35 7.4 NNW 6 7 3 4 - - 0.0
19/04:20am 18.7 16.0 2.9 35 7.4 NNW 6 7 3 4 - - 0.0
19/04:10am 18.5 15.9 3.3 36 7.1 NNW 6 6 3 3 - - 0.0
19/04:00am 18.9 16.3 3.2 35 7.4 NNW 6 7 3 4 - - 0.0
19/03:50am 19.0 16.4 3.4 35 7.4 NNW 6 6 3 3 - - 0.0
19/03:40am 19.2 16.7 3.6 35 7.4 NNW 6 6 3 3 - - 0.0
19/03:30am 19.4 16.8 3.4 34 7.6 NNW 6 7 3 4 - - 0.0
19/03:20am 19.4 16.9 3.7 35 7.5 NW 6 7 3 4 - - 0.0
19/03:00am 19.3 16.8 4.5 37 7.2 NNW 7 7 4 4 - - 0.0
19/02:50am 18.9 16.4 5.0 40 6.8 NNW 7 7 4 4 - - 0.0
19/02:40am 18.9 16.6 5.9 42 6.5 NNW 7 7 4 4 - - 0.0
19/02:30am 18.8 16.6 6.1 43 6.3 NNW 7 7 4 4 - - 0.0
19/02:20am 18.5 16.8 7.6 49 5.6 NNW 6 7 3 4 - - 0.0
19/02:10am 18.2 16.8 8.7 54 5.0 NNW 6 6 3 3 - - 0.0
19/02:00am 18.0 17.0 10.4 61 4.1 NNW 6 7 3 4 - - 0.0
19/01:50am 18.2 17.2 11.0 63 3.9 NNW 7 7 4 4 - - 0.0
19/01:40am 17.7 17.0 11.4 66 3.5 NNW 6 7 3 4 - - 0.0
19/01:30am 17.1 16.8 12.8 76 2.4 NNW 6 7 3 4 - - 0.0
19/01:20am 17.0 17.0 13.6 80 1.9 N 6 6 3 3 - - 0.0
19/01:10am 16.9 17.1 14.2 84 1.6 NNW 6 6 3 3 - - 0.0
19/01:00am 16.8 17.1 14.5 86 1.3 NNW 6 6 3 3 - - 0.0
19/12:50am 16.8 17.1 14.6 87 1.3 NNW 6 7 3 4 - - 0.0
19/12:40am 16.7 17.5 14.8 88 1.1 N 4 6 2 3 - - 0.0
19/12:30am 16.7 17.5 14.8 88 1.1 NNW 4 6 2 3 - - 0.0
19/12:20am 16.6 17.4 14.8 89 1.0 NNW 4 6 2 3 - - 0.0
19/12:10am 16.5 17.3 14.8 90 1.0 NNW 4 6 2 3 - - 0.0
19/12:00am 16.3 17.1 14.8 91 0.9 NNW 4 4 2 2 - - 0.0
 
Date/Time
EDT
Temp
°C
App
Temp
°C
Dew
Point
°C
Rel
Hum
%
Delta-T
°C
Wind Press
QNH
hPa
Press
MSL
hPa
Rain since
9am
mm
Dir  Spd
km/h
Gust
km/h
Spd
kts
Gust
kts
18/11:50pm 16.4 17.1 14.6 89 1.0 NNW 4 4 2 2 - - 0.0
18/11:40pm 16.6 17.7 14.6 88 1.2 NW 2 2 1 1 - - 0.0
18/11:30pm 16.7 17.7 14.4 86 1.3 WNW 2 4 1 2 - - 0.0
18/11:20pm 16.8 17.6 14.9 88 1.1 W 4 4 2 2 - - 0.0
18/11:10pm 17.0 18.1 14.7 86 1.3 W 2 2 1 1 - - 0.0
18/11:00pm 16.9 18.0 14.7 87 1.3 NNW 2 2 1 1 - - 0.0
18/10:50pm 17.1 18.2 14.6 85 1.4 NNE 2 4 1 2 - - 0.0
18/10:40pm 17.2 18.3 14.7 85 1.5 NNE 2 4 1 2 - - 0.0
18/10:30pm 17.5 18.6 14.7 83 1.6 NNW 2 4 1 2 - - 0.0
18/10:20pm 17.6 18.7 14.7 83 1.7 NNW 2 2 1 1 - - 0.0
18/10:10pm 17.7 18.9 14.8 83 1.7 N 2 4 1 2 - - 0.0
18/10:00pm 18.1 18.9 14.7 80 2.0 N 4 4 2 2 - - 0.0
18/09:50pm 18.3 19.1 14.7 79 2.1 N 4 6 2 3 - - 0.0
18/09:40pm 18.5 19.2 14.6 78 2.3 N 4 6 2 3 - - 0.0
18/09:30pm 18.7 19.4 14.6 77 2.4 N 4 4 2 2 - - 0.0
18/09:20pm 19.0 19.8 14.7 76 2.5 WNW 4 6 2 3 - - 0.0
18/09:10pm 19.6 20.3 14.5 72 3.0 NNW 4 7 2 4 - - 0.0
18/09:00pm 19.9 20.2 14.4 70 3.2 N 6 9 3 5 - - 0.0
18/08:50pm 20.0 19.3 14.4 70 3.3 ENE 11 15 6 8 - - 0.0
18/08:40pm 19.9 19.2 14.4 70 3.2 ENE 11 13 6 7 - - 0.0
18/08:30pm 20.0 18.6 14.4 70 3.3 ENE 15 17 8 9 - - 0.0
18/08:20pm 20.0 18.9 14.4 70 3.3 ENE 13 19 7 10 - - 0.0
18/08:10pm 20.0 18.6 14.6 71 3.2 ENE 15 19 8 10 - - 0.0
18/08:00pm 20.0 18.7 14.8 72 3.1 ENE 15 17 8 9 - - 0.0
18/07:50pm 20.2 18.9 14.9 71 3.1 ENE 15 19 8 10 - - 0.0
18/07:40pm 20.3 19.0 14.9 71 3.2 ENE 15 17 8 9 - - 0.0
18/07:30pm 20.5 19.3 15.1 71 3.2 ENE 15 19 8 10 - - 0.0
18/07:20pm 20.8 19.6 15.0 69 3.4 ENE 15 19 8 10 - - 0.0
18/07:10pm 21.1 19.9 15.1 68 3.6 ENE 15 17 8 9 - - 0.0
18/07:00pm 21.4 20.2 15.1 67 3.8 ENE 15 17 8 9 - - 0.0
18/06:50pm 21.7 20.1 15.0 65 4.0 ENE 17 19 9 10 - - 0.0
18/06:40pm 22.0 20.8 15.1 65 4.1 ENE 15 19 8 10 - - 0.0
18/06:30pm 22.3 20.8 15.2 64 4.3 ENE 17 19 9 10 - - 0.0
18/06:20pm 22.7 22.0 15.3 63 4.4 ENE 13 17 7 9 - - 0.0
18/06:10pm 23.0 21.8 15.1 61 4.7 ENE 15 19 8 10 - - 0.0
18/06:00pm 23.1 21.1 15.0 60 4.9 ENE 19 20 10 11 - - 0.0
18/05:50pm 23.4 21.8 15.1 59 5.0 ENE 17 19 9 10 - - 0.0
18/05:40pm 23.7 22.1 15.0 58 5.2 ENE 17 20 9 11 - - 0.0
18/05:30pm 23.9 22.3 14.9 57 5.4 ENE 17 20 9 11 - - 0.0
18/05:20pm 24.3 23.1 15.0 56 5.6 ENE 15 22 8 12 - - 0.0
18/05:10pm 24.6 23.7 14.9 54 5.8 ENE 13 15 7 8 - - 0.0
18/05:00pm 24.5 23.3 15.0 55 5.7 ENE 15 22 8 12 - - 0.0
18/04:50pm 24.5 22.5 15.0 55 5.7 ENE 19 22 10 12 - - 0.0
18/04:40pm 25.0 24.1 14.9 53 6.1 NE 13 19 7 10 - - 0.0
18/04:30pm 25.1 23.8 14.8 52 6.2 ENE 15 19 8 10 - - 0.0
18/04:20pm 25.5 24.2 14.8 51 6.5 ENE 15 19 8 10 - - 0.0
18/04:10pm 26.0 25.0 14.7 49 6.8 ENE 13 17 7 9 - - 0.0
18/04:00pm 26.0 24.7 14.7 49 6.8 E 15 22 8 12 - - 0.0
18/03:50pm 26.0 24.5 14.3 48 7.0 ENE 15 19 8 10 - - 0.0
18/03:40pm 26.2 24.7 14.2 47 7.2 E 15 19 8 10 - - 0.0
18/03:30pm 26.7 25.1 14.0 45 7.6 E 15 19 8 10 - - 0.0
18/03:20pm 27.3 26.1 12.9 41 8.5 NE 11 15 6 8 - - 0.0
18/03:10pm 27.6 26.0 11.6 37 9.2 ENE 11 15 6 8 - - 0.0
18/03:00pm 28.3 26.7 8.7 29 10.8 NE 7 11 4 6 - - 0.0
18/02:50pm 28.0 25.0 7.6 27 11.0 N 13 17 7 9 - - 0.0
18/02:40pm 27.6 25.3 9.0 31 10.3 NE 11 13 6 7 - - 0.0
18/02:30pm 27.9 26.1 9.3 31 10.4 NE 9 13 5 7 - - 0.0
18/02:20pm 27.8 26.4 9.5 31 10.2 NE 7 11 4 6 - - 0.0
18/02:10pm 27.1 25.4 9.7 33 9.7 NE 9 13 5 7 - - 0.0
18/02:00pm 27.0 24.8 9.3 32 9.8 NE 11 15 6 8 - - 0.0
18/01:50pm 26.9 24.8 9.9 34 9.5 NE 11 13 6 7 - - 0.0
18/01:40pm 26.9 25.2 10.0 34 9.5 N 9 13 5 7 - - 0.0
18/01:30pm 26.5 24.3 9.4 34 9.5 NW 11 17 6 9 - - 0.0
18/01:20pm 26.5 24.8 9.9 35 9.3 NNE 9 13 5 7 - - 0.0
18/01:10pm 26.5 24.6 10.5 36 9.0 NNE 11 15 6 8 - - 0.0
18/01:00pm 26.7 25.7 10.2 35 9.3 N 6 7 3 4 - - 0.0
18/12:50pm 25.9 23.9 10.2 37 8.8 NNW 11 15 6 8 - - 0.0
18/12:40pm 25.3 23.5 9.3 36 8.8 NW 9 11 5 6 - - 0.0
18/12:30pm 25.2 23.9 10.0 38 8.5 NNW 7 13 4 7 - - 0.0
18/12:20pm 25.1 24.0 9.9 38 8.4 N 6 11 3 6 - - 0.0
18/12:10pm 24.7 23.1 10.2 40 8.1 NNW 9 17 5 9 - - 0.0
18/12:00pm 24.4 22.3 9.7 39 8.1 NW 11 15 6 8 - - 0.0
18/11:50am 24.4 22.8 10.3 41 7.8 N 9 13 5 7 - - 0.0
18/11:40am 24.1 22.6 11.8 46 7.0 N 11 13 6 7 - - 0.0

Other formats

Comma delimited format used in spreadsheet applications
http://www.bom.gov.au/fwo/IDN60801/IDN60801.99072.axf

JavaScript Object Notation format (JSON) in row-major order
http://www.bom.gov.au/fwo/IDN60801/IDN60801.99072.json

Data quality

Most of these data are generated automatically and are frequently updated. Quality checks on data are not normally performed. It is possible for incorrect values to appear. Refer to information at About Latest Weather Observations and please check the disclaimer before using these data.